Flight Briefing for CPX449

Departure Arrival
Sacramento International Airport (KSMF)
Click to view FAA NOTAMS
El Paso International Airport (KELP)
Click to view FAA NOTAMS
Departure Time Arrival Time
N/A N/A
Aircraft Distance
B757-200SF 852nm
Departure METAR Arrival METAR
KSMF 260853Z 22005KT 6SM -RA BR SCT015 BKN025 OVC050 12/12 A3005 RMK AO2 RAE0755B53 SLP175 P0000 60002 T01220117 58000 KELP 260851Z 02004KT 10SM BKN250 16/M02 A3017 RMK AO2 SLP159 T01561017 58004
Suggested Route
RVRCT2 RALEY JSICA Q130 ROCCY KD36Q CABNO SLNNK WAZKO1


View recent IFR Routes data
Notes



Charts and Procedures

Charts for KSMF
No chart available
Charts for KELP
No chart available

Windy.com Weather Map